sensor_id;sensor_type;location;lat;lon;timestamp;temperature;humidity
70456;DHT22;57916;51.996;5.180;2023-12-20T00:02:16;10.80;79.10
70456;DHT22;57916;51.996;5.180;2023-12-20T00:04:43;10.80;78.80
70456;DHT22;57916;51.996;5.180;2023-12-20T00:07:10;10.80;78.60
70456;DHT22;57916;51.996;5.180;2023-12-20T00:09:37;10.80;78.20
70456;DHT22;57916;51.996;5.180;2023-12-20T00:12:05;10.90;77.80
70456;DHT22;57916;51.996;5.180;2023-12-20T00:14:32;10.90;77.50
70456;DHT22;57916;51.996;5.180;2023-12-20T00:16:58;10.90;77.30
70456;DHT22;57916;51.996;5.180;2023-12-20T00:19:25;10.90;77.00
70456;DHT22;57916;51.996;5.180;2023-12-20T00:21:52;10.90;76.80
70456;DHT22;57916;51.996;5.180;2023-12-20T00:24:19;10.90;76.90
70456;DHT22;57916;51.996;5.180;2023-12-20T00:26:47;10.80;76.80
70456;DHT22;57916;51.996;5.180;2023-12-20T00:29:14;10.80;76.90
70456;DHT22;57916;51.996;5.180;2023-12-20T00:31:41;10.80;76.90
70456;DHT22;57916;51.996;5.180;2023-12-20T00:34:08;10.80;76.90
70456;DHT22;57916;51.996;5.180;2023-12-20T00:36:35;10.80;76.70
70456;DHT22;57916;51.996;5.180;2023-12-20T00:39:02;10.70;76.60
70456;DHT22;57916;51.996;5.180;2023-12-20T00:41:30;10.70;76.60
70456;DHT22;57916;51.996;5.180;2023-12-20T00:43:56;10.70;76.70
70456;DHT22;57916;51.996;5.180;2023-12-20T00:46:23;10.70;76.70
70456;DHT22;57916;51.996;5.180;2023-12-20T00:48:50;10.70;76.80
70456;DHT22;57916;51.996;5.180;2023-12-20T00:51:17;10.70;76.80
70456;DHT22;57916;51.996;5.180;2023-12-20T00:53:44;10.70;76.80
70456;DHT22;57916;51.996;5.180;2023-12-20T00:56:12;10.70;76.80
70456;DHT22;57916;51.996;5.180;2023-12-20T00:58:39;10.70;76.90
70456;DHT22;57916;51.996;5.180;2023-12-20T01:01:06;10.70;76.80
70456;DHT22;57916;51.996;5.180;2023-12-20T01:03:33;10.70;76.60
70456;DHT22;57916;51.996;5.180;2023-12-20T01:06:00;10.80;76.50
70456;DHT22;57916;51.996;5.180;2023-12-20T01:08:27;10.80;76.50
70456;DHT22;57916;51.996;5.180;2023-12-20T01:10:54;10.80;76.40
70456;DHT22;57916;51.996;5.180;2023-12-20T01:13:21;10.80;76.20
70456;DHT22;57916;51.996;5.180;2023-12-20T01:15:48;10.80;76.00
70456;DHT22;57916;51.996;5.180;2023-12-20T01:18:15;10.80;75.80
70456;DHT22;57916;51.996;5.180;2023-12-20T01:20:42;10.80;75.60
70456;DHT22;57916;51.996;5.180;2023-12-20T01:23:09;10.70;75.70
70456;DHT22;57916;51.996;5.180;2023-12-20T01:25:36;10.70;75.70
70456;DHT22;57916;51.996;5.180;2023-12-20T01:28:03;10.70;75.60
70456;DHT22;57916;51.996;5.180;2023-12-20T01:30:30;10.70;75.90
70456;DHT22;57916;51.996;5.180;2023-12-20T01:32:59;10.60;76.10
70456;DHT22;57916;51.996;5.180;2023-12-20T01:35:26;10.60;76.40
70456;DHT22;57916;51.996;5.180;2023-12-20T01:37:53;10.60;76.70
70456;DHT22;57916;51.996;5.180;2023-12-20T01:40:23;10.70;76.90
70456;DHT22;57916;51.996;5.180;2023-12-20T01:43:07;10.60;76.80
70456;DHT22;57916;51.996;5.180;2023-12-20T01:45:35;10.60;76.80
70456;DHT22;57916;51.996;5.180;2023-12-20T01:48:04;10.70;76.90
70456;DHT22;57916;51.996;5.180;2023-12-20T01:50:32;10.70;76.90
70456;DHT22;57916;51.996;5.180;2023-12-20T01:53:02;10.70;76.80
70456;DHT22;57916;51.996;5.180;2023-12-20T01:55:32;10.70;76.70
70456;DHT22;57916;51.996;5.180;2023-12-20T01:58:00;10.70;76.80
70456;DHT22;57916;51.996;5.180;2023-12-20T02:00:28;10.70;76.80
70456;DHT22;57916;51.996;5.180;2023-12-20T02:02:55;10.70;76.70
70456;DHT22;57916;51.996;5.180;2023-12-20T02:05:32;10.70;76.70
70456;DHT22;57916;51.996;5.180;2023-12-20T02:07:59;10.70;76.80
70456;DHT22;57916;51.996;5.180;2023-12-20T02:10:27;10.70;76.70
70456;DHT22;57916;51.996;5.180;2023-12-20T02:12:54;10.70;76.80
70456;DHT22;57916;51.996;5.180;2023-12-20T02:15:21;10.70;76.90
70456;DHT22;57916;51.996;5.180;2023-12-20T02:17:49;10.70;77.00
70456;DHT22;57916;51.996;5.180;2023-12-20T02:20:16;10.70;77.20
70456;DHT22;57916;51.996;5.180;2023-12-20T02:22:43;10.70;77.40
70456;DHT22;57916;51.996;5.180;2023-12-20T02:25:10;10.70;77.40
70456;DHT22;57916;51.996;5.180;2023-12-20T02:27:38;10.80;77.50
70456;DHT22;57916;51.996;5.180;2023-12-20T02:30:06;10.80;77.40
70456;DHT22;57916;51.996;5.180;2023-12-20T02:32:33;10.80;77.30
70456;DHT22;57916;51.996;5.180;2023-12-20T02:35:00;10.80;77.50
70456;DHT22;57916;51.996;5.180;2023-12-20T02:37:27;10.80;77.40
70456;DHT22;57916;51.996;5.180;2023-12-20T02:39:54;10.80;77.00
70456;DHT22;57916;51.996;5.180;2023-12-20T02:42:21;10.90;76.80
70456;DHT22;57916;51.996;5.180;2023-12-20T02:44:48;10.80;76.60
70456;DHT22;57916;51.996;5.180;2023-12-20T02:47:15;10.90;76.60
70456;DHT22;57916;51.996;5.180;2023-12-20T02:49:42;10.80;76.40
70456;DHT22;57916;51.996;5.180;2023-12-20T02:52:09;10.80;76.30
70456;DHT22;57916;51.996;5.180;2023-12-20T02:54:36;10.90;76.30
70456;DHT22;57916;51.996;5.180;2023-12-20T02:57:03;10.90;76.30
70456;DHT22;57916;51.996;5.180;2023-12-20T02:59:30;10.90;76.60
70456;DHT22;57916;51.996;5.180;2023-12-20T03:01:57;10.80;76.90
70456;DHT22;57916;51.996;5.180;2023-12-20T03:04:24;10.80;77.10
70456;DHT22;57916;51.996;5.180;2023-12-20T03:06:52;10.80;77.30
70456;DHT22;57916;51.996;5.180;2023-12-20T03:09:19;10.80;77.40
70456;DHT22;57916;51.996;5.180;2023-12-20T03:11:46;10.80;77.40
70456;DHT22;57916;51.996;5.180;2023-12-20T03:14:12;10.90;77.40
70456;DHT22;57916;51.996;5.180;2023-12-20T03:16:39;11.00;77.30
70456;DHT22;57916;51.996;5.180;2023-12-20T03:19:06;11.00;77.30
70456;DHT22;57916;51.996;5.180;2023-12-20T03:21:33;11.00;77.30
70456;DHT22;57916;51.996;5.180;2023-12-20T03:24:00;11.00;77.30
70456;DHT22;57916;51.996;5.180;2023-12-20T03:26:27;11.00;77.20
70456;DHT22;57916;51.996;5.180;2023-12-20T03:28:54;11.00;77.30
70456;DHT22;57916;51.996;5.180;2023-12-20T03:31:21;10.90;77.40
70456;DHT22;57916;51.996;5.180;2023-12-20T03:33:48;11.00;77.40
70456;DHT22;57916;51.996;5.180;2023-12-20T03:36:16;10.90;77.50
70456;DHT22;57916;51.996;5.180;2023-12-20T03:38:45;10.90;77.50
70456;DHT22;57916;51.996;5.180;2023-12-20T03:41:12;11.00;77.70
70456;DHT22;57916;51.996;5.180;2023-12-20T03:43:39;11.00;77.60
70456;DHT22;57916;51.996;5.180;2023-12-20T03:46:08;11.00;77.60
70456;DHT22;57916;51.996;5.180;2023-12-20T03:48:35;11.00;77.60
70456;DHT22;57916;51.996;5.180;2023-12-20T03:51:02;11.00;77.50
70456;DHT22;57916;51.996;5.180;2023-12-20T03:53:29;11.00;77.50
70456;DHT22;57916;51.996;5.180;2023-12-20T03:55:56;11.00;77.40
70456;DHT22;57916;51.996;5.180;2023-12-20T03:58:23;11.00;77.20
70456;DHT22;57916;51.996;5.180;2023-12-20T04:00:49;10.90;77.10
70456;DHT22;57916;51.996;5.180;2023-12-20T04:03:17;10.90;77.00
70456;DHT22;57916;51.996;5.180;2023-12-20T04:05:43;10.90;76.90
70456;DHT22;57916;51.996;5.180;2023-12-20T04:08:11;10.90;76.80
70456;DHT22;57916;51.996;5.180;2023-12-20T04:10:38;10.80;76.80
70456;DHT22;57916;51.996;5.180;2023-12-20T04:13:05;10.90;77.10
70456;DHT22;57916;51.996;5.180;2023-12-20T04:15:32;10.80;77.10
70456;DHT22;57916;51.996;5.180;2023-12-20T04:17:59;10.80;77.30
70456;DHT22;57916;51.996;5.180;2023-12-20T04:20:26;10.90;77.50
70456;DHT22;57916;51.996;5.180;2023-12-20T04:22:53;10.90;77.40
70456;DHT22;57916;51.996;5.180;2023-12-20T04:25:20;10.90;77.30
70456;DHT22;57916;51.996;5.180;2023-12-20T04:27:47;10.90;77.10
70456;DHT22;57916;51.996;5.180;2023-12-20T04:30:15;10.90;77.10
70456;DHT22;57916;51.996;5.180;2023-12-20T04:32:42;10.90;77.00
70456;DHT22;57916;51.996;5.180;2023-12-20T04:35:09;10.90;76.90
70456;DHT22;57916;51.996;5.180;2023-12-20T04:37:36;11.00;76.90
70456;DHT22;57916;51.996;5.180;2023-12-20T04:40:03;11.00;76.90
70456;DHT22;57916;51.996;5.180;2023-12-20T04:42:32;10.90;77.60
70456;DHT22;57916;51.996;5.180;2023-12-20T04:44:59;11.00;76.70
70456;DHT22;57916;51.996;5.180;2023-12-20T04:47:26;11.00;76.50
70456;DHT22;57916;51.996;5.180;2023-12-20T04:49:53;11.00;76.20
70456;DHT22;57916;51.996;5.180;2023-12-20T04:52:20;11.10;76.30
70456;DHT22;57916;51.996;5.180;2023-12-20T04:54:47;11.10;76.00
70456;DHT22;57916;51.996;5.180;2023-12-20T04:57:14;11.10;75.70
70456;DHT22;57916;51.996;5.180;2023-12-20T04:59:41;11.10;75.60
70456;DHT22;57916;51.996;5.180;2023-12-20T05:02:08;11.10;75.50
70456;DHT22;57916;51.996;5.180;2023-12-20T05:04:35;11.10;75.20
70456;DHT22;57916;51.996;5.180;2023-12-20T05:07:02;11.10;75.30
70456;DHT22;57916;51.996;5.180;2023-12-20T05:09:32;11.20;75.40
70456;DHT22;57916;51.996;5.180;2023-12-20T05:11:59;11.10;75.30
70456;DHT22;57916;51.996;5.180;2023-12-20T05:14:26;11.10;75.30
70456;DHT22;57916;51.996;5.180;2023-12-20T05:16:52;11.10;75.70
70456;DHT22;57916;51.996;5.180;2023-12-20T05:19:19;11.10;75.90
70456;DHT22;57916;51.996;5.180;2023-12-20T05:21:46;11.10;76.00
70456;DHT22;57916;51.996;5.180;2023-12-20T05:24:13;11.10;76.00
70456;DHT22;57916;51.996;5.180;2023-12-20T05:26:41;11.10;76.00
70456;DHT22;57916;51.996;5.180;2023-12-20T05:29:08;11.10;76.10
70456;DHT22;57916;51.996;5.180;2023-12-20T05:31:35;11.10;76.00
70456;DHT22;57916;51.996;5.180;2023-12-20T05:34:02;11.20;75.90
70456;DHT22;57916;51.996;5.180;2023-12-20T05:36:29;11.10;75.90
70456;DHT22;57916;51.996;5.180;2023-12-20T05:38:56;11.10;75.90
70456;DHT22;57916;51.996;5.180;2023-12-20T05:41:23;11.10;76.00
70456;DHT22;57916;51.996;5.180;2023-12-20T05:43:50;11.10;75.90
70456;DHT22;57916;51.996;5.180;2023-12-20T05:46:17;11.10;76.00
70456;DHT22;57916;51.996;5.180;2023-12-20T05:48:44;11.10;75.80
70456;DHT22;57916;51.996;5.180;2023-12-20T05:51:14;11.10;75.70
70456;DHT22;57916;51.996;5.180;2023-12-20T05:53:40;11.10;75.70
70456;DHT22;57916;51.996;5.180;2023-12-20T05:56:07;11.20;75.80
70456;DHT22;57916;51.996;5.180;2023-12-20T05:58:34;11.20;75.70
70456;DHT22;57916;51.996;5.180;2023-12-20T06:01:04;11.20;75.50
70456;DHT22;57916;51.996;5.180;2023-12-20T06:03:31;11.20;75.50
70456;DHT22;57916;51.996;5.180;2023-12-20T06:05:58;11.20;75.50
70456;DHT22;57916;51.996;5.180;2023-12-20T06:08:41;11.30;75.40
70456;DHT22;57916;51.996;5.180;2023-12-20T06:11:10;11.30;75.40
70456;DHT22;57916;51.996;5.180;2023-12-20T06:13:37;11.30;75.40
70456;DHT22;57916;51.996;5.180;2023-12-20T06:16:05;11.30;75.40
70456;DHT22;57916;51.996;5.180;2023-12-20T06:18:33;11.30;75.30
70456;DHT22;57916;51.996;5.180;2023-12-20T06:21:00;11.30;75.40
70456;DHT22;57916;51.996;5.180;2023-12-20T06:23:27;11.30;75.40
70456;DHT22;57916;51.996;5.180;2023-12-20T06:25:54;11.30;75.40
70456;DHT22;57916;51.996;5.180;2023-12-20T06:28:21;11.30;75.40
70456;DHT22;57916;51.996;5.180;2023-12-20T06:30:48;11.30;75.50
70456;DHT22;57916;51.996;5.180;2023-12-20T06:33:16;11.30;75.70
70456;DHT22;57916;51.996;5.180;2023-12-20T06:35:45;11.30;75.70
70456;DHT22;57916;51.996;5.180;2023-12-20T06:38:12;11.30;75.50
70456;DHT22;57916;51.996;5.180;2023-12-20T06:40:39;11.30;75.50
70456;DHT22;57916;51.996;5.180;2023-12-20T06:43:06;11.30;75.60
70456;DHT22;57916;51.996;5.180;2023-12-20T06:45:46;11.30;75.50
70456;DHT22;57916;51.996;5.180;2023-12-20T06:48:13;11.40;75.70
70456;DHT22;57916;51.996;5.180;2023-12-20T06:50:40;11.40;75.40
70456;DHT22;57916;51.996;5.180;2023-12-20T06:53:07;11.40;75.40
70456;DHT22;57916;51.996;5.180;2023-12-20T06:55:35;11.40;75.60
70456;DHT22;57916;51.996;5.180;2023-12-20T06:58:03;11.40;75.40
70456;DHT22;57916;51.996;5.180;2023-12-20T07:00:31;11.40;75.40
70456;DHT22;57916;51.996;5.180;2023-12-20T07:02:59;11.40;75.40
70456;DHT22;57916;51.996;5.180;2023-12-20T07:05:26;11.40;75.40
70456;DHT22;57916;51.996;5.180;2023-12-20T07:07:53;11.40;75.20
70456;DHT22;57916;51.996;5.180;2023-12-20T07:10:20;11.40;75.30
70456;DHT22;57916;51.996;5.180;2023-12-20T07:12:47;11.50;75.20
70456;DHT22;57916;51.996;5.180;2023-12-20T07:15:16;11.50;75.30
70456;DHT22;57916;51.996;5.180;2023-12-20T07:17:42;11.50;75.20
70456;DHT22;57916;51.996;5.180;2023-12-20T07:20:11;11.50;75.00
70456;DHT22;57916;51.996;5.180;2023-12-20T07:22:38;11.60;75.00
70456;DHT22;57916;51.996;5.180;2023-12-20T07:25:07;11.50;74.80
70456;DHT22;57916;51.996;5.180;2023-12-20T07:27:34;11.50;74.70
70456;DHT22;57916;51.996;5.180;2023-12-20T07:30:01;11.60;74.70
70456;DHT22;57916;51.996;5.180;2023-12-20T07:32:28;11.60;74.60
70456;DHT22;57916;51.996;5.180;2023-12-20T07:34:55;11.60;74.50
70456;DHT22;57916;51.996;5.180;2023-12-20T07:37:22;11.60;74.50
70456;DHT22;57916;51.996;5.180;2023-12-20T07:39:49;11.60;74.50
70456;DHT22;57916;51.996;5.180;2023-12-20T07:42:16;11.60;74.60
70456;DHT22;57916;51.996;5.180;2023-12-20T07:44:43;11.60;74.40
70456;DHT22;57916;51.996;5.180;2023-12-20T07:47:10;11.70;74.50
70456;DHT22;57916;51.996;5.180;2023-12-20T07:49:39;11.70;74.40
70456;DHT22;57916;51.996;5.180;2023-12-20T07:52:06;11.70;74.40
70456;DHT22;57916;51.996;5.180;2023-12-20T07:54:33;11.70;74.50
70456;DHT22;57916;51.996;5.180;2023-12-20T07:57:00;11.70;74.50
70456;DHT22;57916;51.996;5.180;2023-12-20T07:59:28;11.70;75.40
70456;DHT22;57916;51.996;5.180;2023-12-20T08:01:58;11.70;74.30
70456;DHT22;57916;51.996;5.180;2023-12-20T08:04:27;11.70;74.30
70456;DHT22;57916;51.996;5.180;2023-12-20T08:06:54;11.80;74.30
70456;DHT22;57916;51.996;5.180;2023-12-20T08:09:21;11.80;74.30
70456;DHT22;57916;51.996;5.180;2023-12-20T08:11:49;11.80;74.40
70456;DHT22;57916;51.996;5.180;2023-12-20T08:14:16;11.80;74.30
70456;DHT22;57916;51.996;5.180;2023-12-20T08:16:43;11.80;74.50
70456;DHT22;57916;51.996;5.180;2023-12-20T08:19:10;11.80;74.30
70456;DHT22;57916;51.996;5.180;2023-12-20T08:21:37;11.80;74.10
70456;DHT22;57916;51.996;5.180;2023-12-20T08:24:05;11.80;74.30
70456;DHT22;57916;51.996;5.180;2023-12-20T08:26:33;11.80;74.20
70456;DHT22;57916;51.996;5.180;2023-12-20T08:29:00;11.80;74.10
70456;DHT22;57916;51.996;5.180;2023-12-20T08:31:28;11.80;74.10
70456;DHT22;57916;51.996;5.180;2023-12-20T08:33:56;11.80;74.00
70456;DHT22;57916;51.996;5.180;2023-12-20T08:36:23;11.80;74.20
70456;DHT22;57916;51.996;5.180;2023-12-20T08:38:51;11.80;74.10
70456;DHT22;57916;51.996;5.180;2023-12-20T08:41:18;11.80;74.00
70456;DHT22;57916;51.996;5.180;2023-12-20T08:43:45;11.80;74.10
70456;DHT22;57916;51.996;5.180;2023-12-20T08:46:14;11.80;74.30
70456;DHT22;57916;51.996;5.180;2023-12-20T08:48:41;11.80;74.40
70456;DHT22;57916;51.996;5.180;2023-12-20T08:51:10;11.80;74.30
70456;DHT22;57916;51.996;5.180;2023-12-20T08:53:37;11.80;74.40
70456;DHT22;57916;51.996;5.180;2023-12-20T08:56:04;11.80;74.40
70456;DHT22;57916;51.996;5.180;2023-12-20T08:58:31;11.80;74.50
70456;DHT22;57916;51.996;5.180;2023-12-20T09:00:58;11.80;75.50
70456;DHT22;57916;51.996;5.180;2023-12-20T09:03:25;11.80;74.60
70456;DHT22;57916;51.996;5.180;2023-12-20T09:05:52;11.80;74.90
70456;DHT22;57916;51.996;5.180;2023-12-20T09:08:20;11.90;74.90
70456;DHT22;57916;51.996;5.180;2023-12-20T09:10:47;11.90;74.90
70456;DHT22;57916;51.996;5.180;2023-12-20T09:13:14;11.90;74.90
70456;DHT22;57916;51.996;5.180;2023-12-20T09:15:42;11.90;75.10
70456;DHT22;57916;51.996;5.180;2023-12-20T09:18:09;12.00;75.00
70456;DHT22;57916;51.996;5.180;2023-12-20T09:20:36;11.90;74.80
70456;DHT22;57916;51.996;5.180;2023-12-20T09:23:06;11.90;75.00
70456;DHT22;57916;51.996;5.180;2023-12-20T09:25:32;11.90;75.10
70456;DHT22;57916;51.996;5.180;2023-12-20T09:27:59;11.90;75.10
70456;DHT22;57916;51.996;5.180;2023-12-20T09:30:26;11.90;75.20
70456;DHT22;57916;51.996;5.180;2023-12-20T09:32:54;12.00;75.20
70456;DHT22;57916;51.996;5.180;2023-12-20T09:35:22;12.00;75.10
70456;DHT22;57916;51.996;5.180;2023-12-20T09:37:49;12.10;75.20
70456;DHT22;57916;51.996;5.180;2023-12-20T09:40:18;12.10;75.10
70456;DHT22;57916;51.996;5.180;2023-12-20T09:43:04;12.10;74.90
70456;DHT22;57916;51.996;5.180;2023-12-20T09:45:32;12.10;75.00
70456;DHT22;57916;51.996;5.180;2023-12-20T09:47:59;12.10;75.00
70456;DHT22;57916;51.996;5.180;2023-12-20T09:50:27;12.10;74.90
70456;DHT22;57916;51.996;5.180;2023-12-20T09:52:56;12.10;74.80
70456;DHT22;57916;51.996;5.180;2023-12-20T09:55:27;12.20;75.00
70456;DHT22;57916;51.996;5.180;2023-12-20T09:57:55;12.20;74.80
70456;DHT22;57916;51.996;5.180;2023-12-20T10:00:22;12.20;74.90
70456;DHT22;57916;51.996;5.180;2023-12-20T10:02:59;12.20;74.90
70456;DHT22;57916;51.996;5.180;2023-12-20T10:05:28;12.20;75.00
70456;DHT22;57916;51.996;5.180;2023-12-20T10:07:56;12.20;75.00
70456;DHT22;57916;51.996;5.180;2023-12-20T10:10:23;12.30;74.90
70456;DHT22;57916;51.996;5.180;2023-12-20T10:15:36;12.30;74.80
70456;DHT22;57916;51.996;5.180;2023-12-20T10:18:04;12.30;74.90
70456;DHT22;57916;51.996;5.180;2023-12-20T10:20:32;12.30;74.80
70456;DHT22;57916;51.996;5.180;2023-12-20T10:23:00;12.30;75.80
70456;DHT22;57916;51.996;5.180;2023-12-20T10:25:27;12.30;75.00
70456;DHT22;57916;51.996;5.180;2023-12-20T10:28:15;12.30;75.20
70456;DHT22;57916;51.996;5.180;2023-12-20T10:30:45;12.40;75.10
70456;DHT22;57916;51.996;5.180;2023-12-20T10:33:13;12.40;75.00
70456;DHT22;57916;51.996;5.180;2023-12-20T10:35:40;12.40;74.90
70456;DHT22;57916;51.996;5.180;2023-12-20T10:38:12;12.40;74.70
70456;DHT22;57916;51.996;5.180;2023-12-20T10:40:41;12.40;74.80
70456;DHT22;57916;51.996;5.180;2023-12-20T10:43:08;12.40;75.00
70456;DHT22;57916;51.996;5.180;2023-12-20T10:45:36;12.40;74.80
70456;DHT22;57916;51.996;5.180;2023-12-20T10:48:03;12.50;75.00
70456;DHT22;57916;51.996;5.180;2023-12-20T10:50:31;12.50;74.70
70456;DHT22;57916;51.996;5.180;2023-12-20T10:52:58;12.50;74.70
70456;DHT22;57916;51.996;5.180;2023-12-20T10:55:27;12.50;74.80
70456;DHT22;57916;51.996;5.180;2023-12-20T10:58:02;12.50;74.50
70456;DHT22;57916;51.996;5.180;2023-12-20T11:00:32;12.50;74.30
70456;DHT22;57916;51.996;5.180;2023-12-20T11:03:03;12.60;74.40
70456;DHT22;57916;51.996;5.180;2023-12-20T11:06:23;12.60;74.40
70456;DHT22;57916;51.996;5.180;2023-12-20T11:08:38;12.60;74.10
70456;DHT22;57916;51.996;5.180;2023-12-20T11:11:14;12.60;74.00
70456;DHT22;57916;51.996;5.180;2023-12-20T11:14:02;12.60;74.00
70456;DHT22;57916;51.996;5.180;2023-12-20T11:16:33;12.60;73.80
70456;DHT22;57916;51.996;5.180;2023-12-20T11:19:17;12.60;73.90
70456;DHT22;57916;51.996;5.180;2023-12-20T11:21:46;12.70;74.20
70456;DHT22;57916;51.996;5.180;2023-12-20T11:24:15;12.70;74.10
70456;DHT22;57916;51.996;5.180;2023-12-20T11:26:47;12.70;74.00
70456;DHT22;57916;51.996;5.180;2023-12-20T11:29:35;12.80;74.10
70456;DHT22;57916;51.996;5.180;2023-12-20T11:32:03;12.80;74.10
70456;DHT22;57916;51.996;5.180;2023-12-20T11:34:33;12.80;74.90
70456;DHT22;57916;51.996;5.180;2023-12-20T11:37:03;12.90;74.10
70456;DHT22;57916;51.996;5.180;2023-12-20T11:39:30;12.90;74.10
70456;DHT22;57916;51.996;5.180;2023-12-20T11:42:04;12.90;74.80
70456;DHT22;57916;51.996;5.180;2023-12-20T11:44:33;12.90;74.10
70456;DHT22;57916;51.996;5.180;2023-12-20T11:47:00;12.90;74.30
70456;DHT22;57916;51.996;5.180;2023-12-20T11:49:27;12.90;74.30
70456;DHT22;57916;51.996;5.180;2023-12-20T11:51:56;12.90;74.40
70456;DHT22;57916;51.996;5.180;2023-12-20T11:54:23;12.90;74.40
70456;DHT22;57916;51.996;5.180;2023-12-20T11:56:50;12.90;74.50
70456;DHT22;57916;51.996;5.180;2023-12-20T11:59:17;12.90;74.20
70456;DHT22;57916;51.996;5.180;2023-12-20T12:01:52;13.00;74.50
70456;DHT22;57916;51.996;5.180;2023-12-20T12:04:19;13.00;74.50
70456;DHT22;57916;51.996;5.180;2023-12-20T12:06:46;13.10;74.10
70456;DHT22;57916;51.996;5.180;2023-12-20T12:09:14;13.10;74.10
70456;DHT22;57916;51.996;5.180;2023-12-20T12:11:42;13.10;73.80
70456;DHT22;57916;51.996;5.180;2023-12-20T12:14:10;13.10;73.70
70456;DHT22;57916;51.996;5.180;2023-12-20T12:16:38;13.10;73.70
70456;DHT22;57916;51.996;5.180;2023-12-20T12:19:05;13.10;73.60
70456;DHT22;57916;51.996;5.180;2023-12-20T12:21:31;13.10;73.40
70456;DHT22;57916;51.996;5.180;2023-12-20T12:24:10;13.10;73.30
70456;DHT22;57916;51.996;5.180;2023-12-20T12:26:37;13.00;73.20
70456;DHT22;57916;51.996;5.180;2023-12-20T12:29:07;13.00;73.20
70456;DHT22;57916;51.996;5.180;2023-12-20T12:31:34;13.00;73.50
70456;DHT22;57916;51.996;5.180;2023-12-20T12:34:01;13.00;73.80
70456;DHT22;57916;51.996;5.180;2023-12-20T12:36:30;13.00;73.70
70456;DHT22;57916;51.996;5.180;2023-12-20T12:38:57;13.00;73.80
70456;DHT22;57916;51.996;5.180;2023-12-20T12:41:24;13.00;73.90
70456;DHT22;57916;51.996;5.180;2023-12-20T12:43:51;13.00;73.80
70456;DHT22;57916;51.996;5.180;2023-12-20T12:46:18;13.00;73.80
70456;DHT22;57916;51.996;5.180;2023-12-20T12:48:45;13.00;73.80
70456;DHT22;57916;51.996;5.180;2023-12-20T12:51:13;13.00;73.40
70456;DHT22;57916;51.996;5.180;2023-12-20T12:53:40;13.00;73.60
70456;DHT22;57916;51.996;5.180;2023-12-20T12:56:08;13.00;73.60
70456;DHT22;57916;51.996;5.180;2023-12-20T12:58:36;13.00;73.60
70456;DHT22;57916;51.996;5.180;2023-12-20T13:01:04;13.00;73.60
70456;DHT22;57916;51.996;5.180;2023-12-20T13:03:31;13.00;73.90
70456;DHT22;57916;51.996;5.180;2023-12-20T13:05:58;13.00;73.80
70456;DHT22;57916;51.996;5.180;2023-12-20T13:08:25;13.00;73.40
70456;DHT22;57916;51.996;5.180;2023-12-20T13:10:52;13.00;73.40
70456;DHT22;57916;51.996;5.180;2023-12-20T13:13:19;13.00;73.00
70456;DHT22;57916;51.996;5.180;2023-12-20T13:15:46;13.00;72.90
70456;DHT22;57916;51.996;5.180;2023-12-20T13:18:18;13.00;72.90
70456;DHT22;57916;51.996;5.180;2023-12-20T13:20:45;13.00;73.00
70456;DHT22;57916;51.996;5.180;2023-12-20T13:23:12;13.00;73.00
70456;DHT22;57916;51.996;5.180;2023-12-20T13:25:40;13.00;72.70
70456;DHT22;57916;51.996;5.180;2023-12-20T13:28:08;13.00;72.50
70456;DHT22;57916;51.996;5.180;2023-12-20T13:30:35;13.00;72.40
70456;DHT22;57916;51.996;5.180;2023-12-20T13:33:02;13.00;72.30
70456;DHT22;57916;51.996;5.180;2023-12-20T13:35:30;13.00;72.00
70456;DHT22;57916;51.996;5.180;2023-12-20T13:37:58;13.00;72.00
70456;DHT22;57916;51.996;5.180;2023-12-20T13:40:25;13.00;72.00
70456;DHT22;57916;51.996;5.180;2023-12-20T13:42:52;13.00;72.00
70456;DHT22;57916;51.996;5.180;2023-12-20T13:45:19;13.00;72.10
70456;DHT22;57916;51.996;5.180;2023-12-20T13:47:46;13.00;72.20
70456;DHT22;57916;51.996;5.180;2023-12-20T13:50:13;13.00;72.30
70456;DHT22;57916;51.996;5.180;2023-12-20T13:52:40;13.10;72.30
70456;DHT22;57916;51.996;5.180;2023-12-20T13:55:08;13.10;72.30
70456;DHT22;57916;51.996;5.180;2023-12-20T13:57:36;13.10;72.40
70456;DHT22;57916;51.996;5.180;2023-12-20T14:00:21;13.10;72.20
70456;DHT22;57916;51.996;5.180;2023-12-20T14:02:48;13.10;72.30
70456;DHT22;57916;51.996;5.180;2023-12-20T14:05:16;13.10;72.20
70456;DHT22;57916;51.996;5.180;2023-12-20T14:07:45;13.10;72.10
70456;DHT22;57916;51.996;5.180;2023-12-20T14:10:13;13.10;72.50
70456;DHT22;57916;51.996;5.180;2023-12-20T14:12:41;13.10;72.50
70456;DHT22;57916;51.996;5.180;2023-12-20T14:15:08;13.00;72.50
70456;DHT22;57916;51.996;5.180;2023-12-20T14:17:38;13.00;72.70
70456;DHT22;57916;51.996;5.180;2023-12-20T14:20:07;13.10;72.90
70456;DHT22;57916;51.996;5.180;2023-12-20T14:22:35;13.10;72.80
70456;DHT22;57916;51.996;5.180;2023-12-20T14:25:02;13.10;72.80
70456;DHT22;57916;51.996;5.180;2023-12-20T14:27:30;13.00;72.80
70456;DHT22;57916;51.996;5.180;2023-12-20T14:29:56;13.00;72.70
70456;DHT22;57916;51.996;5.180;2023-12-20T14:32:24;13.00;72.70
70456;DHT22;57916;51.996;5.180;2023-12-20T14:34:53;13.00;72.70
70456;DHT22;57916;51.996;5.180;2023-12-20T14:37:22;13.00;72.70
70456;DHT22;57916;51.996;5.180;2023-12-20T14:39:49;13.00;72.80
70456;DHT22;57916;51.996;5.180;2023-12-20T14:42:16;13.00;72.60
70456;DHT22;57916;51.996;5.180;2023-12-20T14:44:43;13.00;72.70
70456;DHT22;57916;51.996;5.180;2023-12-20T14:47:10;13.00;72.70
70456;DHT22;57916;51.996;5.180;2023-12-20T14:49:37;13.00;72.70
70456;DHT22;57916;51.996;5.180;2023-12-20T14:52:05;13.00;72.70
70456;DHT22;57916;51.996;5.180;2023-12-20T14:54:32;13.00;72.60
70456;DHT22;57916;51.996;5.180;2023-12-20T14:56:59;13.00;72.60
70456;DHT22;57916;51.996;5.180;2023-12-20T14:59:31;13.00;72.70
70456;DHT22;57916;51.996;5.180;2023-12-20T15:01:58;13.00;72.90
70456;DHT22;57916;51.996;5.180;2023-12-20T15:04:27;13.00;73.00
70456;DHT22;57916;51.996;5.180;2023-12-20T15:06:56;13.00;73.00
70456;DHT22;57916;51.996;5.180;2023-12-20T15:09:23;13.00;72.90
70456;DHT22;57916;51.996;5.180;2023-12-20T15:11:51;13.00;73.00
70456;DHT22;57916;51.996;5.180;2023-12-20T15:14:17;13.00;73.00
70456;DHT22;57916;51.996;5.180;2023-12-20T15:16:46;13.00;73.00
70456;DHT22;57916;51.996;5.180;2023-12-20T15:19:14;13.00;73.10
70456;DHT22;57916;51.996;5.180;2023-12-20T15:21:42;13.00;73.30
70456;DHT22;57916;51.996;5.180;2023-12-20T15:24:13;13.10;73.40
70456;DHT22;57916;51.996;5.180;2023-12-20T15:26:46;13.10;73.50
70456;DHT22;57916;51.996;5.180;2023-12-20T15:29:14;13.10;73.60
70456;DHT22;57916;51.996;5.180;2023-12-20T15:31:46;13.10;73.50
70456;DHT22;57916;51.996;5.180;2023-12-20T15:34:13;13.10;73.70
70456;DHT22;57916;51.996;5.180;2023-12-20T15:36:42;13.00;73.60
70456;DHT22;57916;51.996;5.180;2023-12-20T15:39:09;13.00;73.90